createdAt,value
2023-01-28T00:00:03.345Z,102193.34
2023-01-28T00:03:08.125Z,102189.09
2023-01-28T00:06:14.060Z,102191.66
2023-01-28T00:09:17.361Z,102197.59
2023-01-28T00:12:21.705Z,102195.06
2023-01-28T00:15:25.469Z,102195.91
2023-01-28T00:18:30.020Z,102192.50
2023-01-28T00:21:33.060Z,102190.78
2023-01-28T00:24:36.124Z,102192.50
2023-01-28T00:27:40.459Z,102195.88
2023-01-28T00:30:43.471Z,102202.72
2023-01-28T00:33:49.168Z,102204.41
2023-01-28T00:36:57.657Z,102205.25
2023-01-28T00:40:00.793Z,102204.44
2023-01-28T00:43:06.285Z,102206.09
2023-01-28T00:46:10.883Z,102214.59
2023-01-28T00:49:13.942Z,102207.75
2023-01-28T00:52:17.725Z,102213.75
2023-01-28T00:55:21.784Z,102212.00
2023-01-28T00:58:26.187Z,102212.00
2023-01-28T01:01:29.403Z,102214.59
2023-01-28T01:04:35.402Z,102217.97
2023-01-28T01:07:42.552Z,102214.59
2023-01-28T01:10:48.020Z,102212.88
2023-01-28T01:13:56.737Z,102212.03
2023-01-28T01:17:01.004Z,102214.53
2023-01-28T01:20:06.283Z,102212.84
2023-01-28T01:23:10.320Z,102209.44
2023-01-28T01:26:14.418Z,102212.00
2023-01-28T01:29:18.767Z,102212.00
2023-01-28T01:32:22.352Z,102217.13
2023-01-28T01:35:26.010Z,102205.22
2023-01-28T01:38:30.854Z,102213.75
2023-01-28T01:41:34.494Z,102207.81
2023-01-28T01:44:59.214Z,102209.50
2023-01-28T01:48:14.959Z,102212.94
2023-01-28T01:51:23.154Z,102210.38
2023-01-28T01:54:29.688Z,102221.47
2023-01-28T01:57:36.107Z,102220.59
2023-01-28T02:00:41.715Z,102219.78
2023-01-28T02:03:54.806Z,102215.50
2023-01-28T02:07:02.269Z,102215.50
2023-01-28T02:10:09.146Z,102224.88
2023-01-28T02:13:12.649Z,102221.50
2023-01-28T02:16:17.525Z,102225.75
2023-01-28T02:19:23.385Z,102222.34
2023-01-28T02:22:56.334Z,102223.22
2023-01-28T02:26:40.351Z,102218.94
2023-01-28T02:29:51.449Z,102227.47
2023-01-28T02:32:59.249Z,102224.06
2023-01-28T02:36:13.721Z,102215.53
2023-01-28T02:39:24.962Z,102217.25
2023-01-28T02:42:31.246Z,102225.75
2023-01-28T02:45:51.134Z,102231.75
2023-01-28T02:48:54.492Z,102232.59
2023-01-28T02:52:17.377Z,102223.22
2023-01-28T02:55:35.571Z,102221.50
2023-01-28T02:58:44.510Z,102224.91
2023-01-28T03:01:51.721Z,102222.38
2023-01-28T03:05:02.953Z,102234.31
2023-01-28T03:08:28.112Z,102227.47
2023-01-28T03:11:53.673Z,102224.94
2023-01-28T03:15:18.238Z,102235.16
2023-01-28T03:18:44.110Z,102235.16
2023-01-28T03:22:05.877Z,102226.63
2023-01-28T03:25:30.579Z,102238.56
2023-01-28T03:28:58.166Z,102237.72
2023-01-28T03:32:20.589Z,102236.00
2023-01-28T03:35:44.645Z,102238.56
2023-01-28T03:38:48.918Z,102238.56
2023-01-28T03:42:04.937Z,102241.13
2023-01-28T03:45:09.986Z,102241.13
2023-01-28T03:48:15.422Z,102237.72
2023-01-28T03:51:20.218Z,102233.44
2023-01-28T03:54:23.431Z,102230.88
2023-01-28T03:57:31.447Z,102241.97
2023-01-28T04:00:37.941Z,102233.47
2023-01-28T04:03:41.094Z,102240.25
2023-01-28T04:06:50.839Z,102236.00
2023-01-28T04:10:00.151Z,102234.28
2023-01-28T04:13:13.602Z,102240.28
2023-01-28T04:16:20.342Z,102241.09
2023-01-28T04:19:24.234Z,102244.53
2023-01-28T04:22:29.592Z,102236.84
2023-01-28T04:25:33.419Z,102244.50
2023-01-28T04:28:37.469Z,102242.81
2023-01-28T04:31:40.573Z,102242.81
2023-01-28T04:34:58.577Z,102242.78
2023-01-28T04:38:13.866Z,102246.25
2023-01-28T04:41:29.627Z,102250.50
2023-01-28T04:44:38.537Z,102249.63
2023-01-28T04:47:56.237Z,102246.22
2023-01-28T04:51:18.115Z,102243.66
2023-01-28T04:54:32.610Z,102246.22
2023-01-28T04:57:38.485Z,102242.78
2023-01-28T05:00:43.773Z,102241.09
2023-01-28T05:03:46.839Z,102246.25
2023-01-28T05:06:58.482Z,102249.66
2023-01-28T05:10:10.687Z,102242.81
2023-01-28T05:13:14.439Z,102247.94
2023-01-28T05:16:17.774Z,102254.75
2023-01-28T05:19:21.324Z,102258.16
2023-01-28T05:22:24.523Z,102268.41
2023-01-28T05:25:53.711Z,102269.25
2023-01-28T05:28:57.339Z,102279.50
2023-01-28T05:32:00.853Z,102270.94
2023-01-28T05:35:04.552Z,102271.81
2023-01-28T05:38:07.678Z,102270.91
2023-01-28T05:41:12.087Z,102264.97
2023-01-28T05:44:16.471Z,102271.81
2023-01-28T05:47:54.764Z,102270.97
2023-01-28T05:51:12.631Z,102270.09
2023-01-28T05:54:21.077Z,102267.50
2023-01-28T05:57:26.223Z,102267.53
2023-01-28T06:00:29.417Z,102270.09
2023-01-28T06:03:32.510Z,102266.66
2023-01-28T06:06:35.563Z,102265.78
2023-01-28T06:09:41.558Z,102265.78
2023-01-28T06:12:48.738Z,102265.78
2023-01-28T06:16:11.823Z,102276.88
2023-01-28T06:19:23.552Z,102279.47
2023-01-28T06:22:27.081Z,102276.91
2023-01-28T06:25:30.151Z,102266.63
2023-01-28T06:28:38.647Z,102276.88
2023-01-28T06:31:41.724Z,102280.31
2023-01-28T06:34:44.837Z,102288.00
2023-01-28T06:37:48.115Z,102282.03
2023-01-28T06:40:55.847Z,102286.28
2023-01-28T06:44:00.250Z,102282.88
2023-01-28T06:47:03.380Z,102283.75
2023-01-28T06:50:07.471Z,102282.88
2023-01-28T06:53:10.486Z,102290.56
2023-01-28T06:56:13.545Z,102294.81
2023-01-28T06:59:18.250Z,102281.16
2023-01-28T07:02:21.231Z,102285.41
2023-01-28T07:05:24.977Z,102287.97
2023-01-28T07:08:27.932Z,102289.72
2023-01-28T07:11:31.231Z,102294.84
2023-01-28T07:14:38.610Z,102290.53
2023-01-28T07:17:41.815Z,102305.06
2023-01-28T07:20:44.918Z,102298.25
2023-01-28T07:23:47.946Z,102293.13
2023-01-28T07:31:53.863Z,102292.25
2023-01-28T07:34:57.041Z,102298.22
2023-01-28T07:38:02.120Z,102296.53
2023-01-28T07:41:05.865Z,102297.34
2023-01-28T07:44:09.119Z,102293.06
2023-01-28T07:47:13.963Z,102299.91
2023-01-28T07:50:18.910Z,102299.06
2023-01-28T07:53:23.093Z,102304.19
2023-01-28T07:56:29.393Z,102301.59
2023-01-28T07:59:32.422Z,102299.88
2023-01-28T08:02:37.275Z,102299.03
2023-01-28T08:06:15.693Z,102293.03
2023-01-28T08:09:18.899Z,102298.13
2023-01-28T08:12:21.991Z,102305.81
2023-01-28T08:15:25.753Z,102311.78
2023-01-28T08:18:30.188Z,102311.78
2023-01-28T08:21:33.361Z,102321.19
2023-01-28T08:24:36.572Z,102320.31
2023-01-28T08:27:39.621Z,102322.03
2023-01-28T08:30:43.414Z,102315.16
2023-01-28T08:33:47.782Z,102319.44
2023-01-28T08:36:50.779Z,102322.88
2023-01-28T08:39:53.757Z,102336.56
2023-01-28T08:42:56.757Z,102334.84
2023-01-28T08:45:59.797Z,102339.09
2023-01-28T08:49:04.646Z,102333.09
2023-01-28T08:52:07.684Z,102333.94
2023-01-28T08:55:11.325Z,102330.53
2023-01-28T08:58:16.679Z,102347.59
2023-01-28T09:01:19.832Z,102343.34
2023-01-28T09:04:24.390Z,102343.34
2023-01-28T09:07:27.352Z,102351.91
2023-01-28T09:10:30.816Z,102347.59
2023-01-28T09:13:33.850Z,102352.72
2023-01-28T09:16:36.954Z,102352.69
2023-01-28T09:19:43.190Z,102357.81
2023-01-28T09:22:46.194Z,102369.78
2023-01-28T09:25:49.362Z,102372.34
2023-01-28T09:28:52.415Z,102373.19
2023-01-28T09:31:56.608Z,102371.47
2023-01-28T09:35:00.952Z,102378.28
2023-01-28T09:38:04.605Z,102377.41
2023-01-28T09:41:25.355Z,102370.53
2023-01-28T09:44:44.975Z,102367.16
2023-01-28T09:47:52.854Z,102371.41
2023-01-28T09:50:57.489Z,102379.09
2023-01-28T09:54:06.549Z,102373.94
2023-01-28T09:57:20.760Z,102379.94
2023-01-28T10:00:31.500Z,102391.03
2023-01-28T10:03:51.407Z,102389.34
2023-01-28T10:07:13.164Z,102385.06
2023-01-28T10:10:22.216Z,102377.31
2023-01-28T10:13:41.866Z,102372.19
2023-01-28T10:16:50.910Z,102378.22
2023-01-28T10:20:00.518Z,102368.84
2023-01-28T10:23:13.097Z,102368.81
2023-01-28T10:26:34.415Z,102383.38
2023-01-28T10:29:39.977Z,102372.22
2023-01-28T10:32:52.735Z,102367.03
2023-01-28T10:35:57.737Z,102361.00
2023-01-28T10:39:02.197Z,102355.03
2023-01-28T10:42:18.977Z,102361.06
2023-01-28T10:45:25.587Z,102363.66
2023-01-28T10:48:35.075Z,102354.22
2023-01-28T10:51:42.111Z,102355.84
2023-01-28T10:54:46.470Z,102356.78
2023-01-28T10:57:50.168Z,102360.13
2023-01-28T11:01:01.147Z,102352.47
2023-01-28T11:04:04.462Z,102364.44
2023-01-28T11:07:18.842Z,102364.34
2023-01-28T11:10:32.946Z,102350.63
2023-01-28T11:13:35.923Z,102355.78
2023-01-28T11:16:41.176Z,102354.09
2023-01-28T11:19:47.657Z,102359.22
2023-01-28T11:22:51.762Z,102352.38
2023-01-28T11:26:06.838Z,102341.31
2023-01-28T11:29:25.489Z,102341.28
2023-01-28T11:32:29.767Z,102338.66
2023-01-28T11:35:33.545Z,102336.19
2023-01-28T11:38:36.590Z,102344.72
2023-01-28T11:41:41.011Z,102329.28
2023-01-28T11:44:44.696Z,102329.31
2023-01-28T11:48:04.290Z,102325.00
2023-01-28T11:51:24.567Z,102329.28
2023-01-28T11:54:42.677Z,102323.31
2023-01-28T11:58:00.295Z,102307.09
2023-01-28T12:01:10.200Z,102309.59
2023-01-28T12:04:36.933Z,102322.47
2023-01-28T12:07:46.605Z,102315.59
2023-01-28T12:11:04.347Z,102308.78
2023-01-28T12:14:22.986Z,102308.78
2023-01-28T12:17:43.736Z,102306.19
2023-01-28T12:20:57.900Z,102300.22
2023-01-28T12:24:18.965Z,102306.97
2023-01-28T12:27:37.682Z,102301.03
2023-01-28T12:31:02.038Z,102310.41
2023-01-28T12:34:38.335Z,102307.81
2023-01-28T12:38:00.835Z,102294.19
2023-01-28T12:41:11.327Z,102303.66
2023-01-28T12:44:21.812Z,102305.34
2023-01-28T12:47:35.514Z,102296.84
2023-01-28T12:50:45.291Z,102298.66
2023-01-28T12:53:53.779Z,102300.34
2023-01-28T12:57:01.170Z,102290.09
2023-01-28T13:00:20.618Z,102298.66
2023-01-28T13:03:36.306Z,102294.31
2023-01-28T13:06:43.893Z,102284.91
2023-01-28T13:09:59.933Z,102292.66
2023-01-28T13:13:03.968Z,102281.47
2023-01-28T13:16:11.205Z,102277.16
2023-01-28T13:19:26.946Z,102265.97
2023-01-28T13:22:36.151Z,102259.06
2023-01-28T13:25:50.566Z,102255.72
2023-01-28T13:28:55.537Z,102261.81
2023-01-28T13:32:01.164Z,102258.38
2023-01-28T13:35:24.017Z,102258.34
2023-01-28T13:38:27.304Z,102257.53
2023-01-28T13:41:40.579Z,102261.81
2023-01-28T13:44:43.597Z,102252.50
2023-01-28T13:47:55.155Z,102259.34
2023-01-28T13:51:01.569Z,102251.63
2023-01-28T13:54:07.869Z,102255.84
2023-01-28T13:57:44.451Z,102260.97
2023-01-28T14:01:43.463Z,102256.69
2023-01-28T14:05:17.808Z,102239.50
2023-01-28T14:08:51.231Z,102241.13
2023-01-28T14:12:27.317Z,102248.81
2023-01-28T14:15:58.824Z,102236.03
2023-01-28T14:19:03.643Z,102240.28
2023-01-28T14:22:10.716Z,102228.44
2023-01-28T14:25:22.378Z,102227.44
2023-01-28T14:28:38.790Z,102220.59
2023-01-28T14:31:42.404Z,102224.84
2023-01-28T14:34:47.011Z,102219.66
2023-01-28T14:37:50.733Z,102225.78
2023-01-28T14:40:56.733Z,102241.13
2023-01-28T14:44:00.153Z,102251.44
2023-01-28T14:47:33.158Z,102250.53
2023-01-28T14:51:07.161Z,102250.56
2023-01-28T14:54:36.146Z,102248.06
2023-01-28T14:57:51.282Z,102246.28
2023-01-28T15:00:57.063Z,102249.69
2023-01-28T15:04:00.260Z,102244.56
2023-01-28T15:07:19.505Z,102247.94
2023-01-28T15:10:29.479Z,102245.41
2023-01-28T15:13:37.820Z,102251.50
2023-01-28T15:16:41.178Z,102255.81
2023-01-28T15:19:44.644Z,102251.59
2023-01-28T15:22:48.008Z,102246.44
2023-01-28T15:25:54.469Z,102249.03
2023-01-28T15:29:00.242Z,102250.69
2023-01-28T15:32:04.014Z,102248.13
2023-01-28T15:35:14.152Z,102252.44
2023-01-28T15:38:17.799Z,102249.03
2023-01-28T15:41:24.077Z,102257.59
2023-01-28T15:44:33.838Z,102248.16
2023-01-28T15:47:36.959Z,102256.72
2023-01-28T15:50:44.896Z,102261.81
2023-01-28T15:53:52.307Z,102257.59
2023-01-28T15:56:55.402Z,102260.13
2023-01-28T16:00:14.549Z,102267.91
2023-01-28T16:03:23.435Z,102281.59
2023-01-28T16:06:33.594Z,102267.91
2023-01-28T16:09:37.871Z,102276.47
2023-01-28T16:12:40.876Z,102281.59
2023-01-28T16:15:52.582Z,102290.16
2023-01-28T16:18:59.231Z,102279.06
2023-01-28T16:22:02.990Z,102270.53
2023-01-28T16:25:28.379Z,102279.13
2023-01-28T16:28:32.610Z,102280.72
2023-01-28T16:31:37.304Z,102257.63
2023-01-28T16:34:42.225Z,102257.63
2023-01-28T16:37:45.645Z,102259.38
2023-01-28T16:40:49.494Z,102255.97
2023-01-28T16:43:52.502Z,102268.75
2023-01-28T16:46:57.153Z,102268.81
2023-01-28T16:50:00.343Z,102283.38
2023-01-28T16:53:04.004Z,102282.53
2023-01-28T16:56:19.507Z,102282.53
2023-01-28T16:59:34.603Z,102287.69
2023-01-28T17:02:38.968Z,102284.25
2023-01-28T17:05:42.276Z,102291.09
2023-01-28T17:08:45.597Z,102310.78
2023-01-28T17:11:51.146Z,102309.94
2023-01-28T17:14:54.071Z,102316.81
2023-01-28T17:17:58.495Z,102320.19
2023-01-28T17:21:03.073Z,102316.78
2023-01-28T17:24:07.374Z,102317.66
2023-01-28T17:27:10.832Z,102332.16
2023-01-28T17:30:15.201Z,102338.13
2023-01-28T17:33:19.554Z,102345.00
2023-01-28T17:36:22.829Z,102338.19
2023-01-28T17:39:25.830Z,102343.31
2023-01-28T17:42:31.038Z,102352.72
2023-01-28T17:45:34.472Z,102345.91
2023-01-28T17:48:38.837Z,102332.22
2023-01-28T17:51:42.151Z,102336.50
2023-01-28T17:54:45.293Z,102325.41
2023-01-28T17:57:48.276Z,102328.84
2023-01-28T18:00:51.539Z,102324.56
2023-01-28T18:03:56.283Z,102334.00
2023-01-28T18:06:59.314Z,102328.00
2023-01-28T18:10:02.422Z,102333.16
2023-01-28T18:13:05.670Z,102341.72
2023-01-28T18:16:14.883Z,102332.31
2023-01-28T18:19:19.237Z,102335.75
2023-01-28T18:22:22.351Z,102329.78
2023-01-28T18:25:25.291Z,102332.34
2023-01-28T18:28:29.456Z,102330.63
2023-01-28T18:31:32.588Z,102326.38
2023-01-28T18:34:37.282Z,102322.94
2023-01-28T18:37:41.503Z,102326.38
2023-01-28T18:40:45.333Z,102334.09
2023-01-28T18:43:48.349Z,102331.53
2023-01-28T18:46:51.595Z,102335.78
2023-01-28T18:49:56.274Z,102326.38
2023-01-28T18:52:59.569Z,102329.84
2023-01-28T18:56:04.188Z,102334.94
2023-01-28T18:59:10.497Z,102343.50
2023-01-28T19:02:15.696Z,102342.63
2023-01-28T19:05:20.136Z,102342.63
2023-01-28T19:08:23.128Z,102322.16
2023-01-28T19:11:30.119Z,102323.84
2023-01-28T19:14:33.330Z,102326.41
2023-01-28T19:17:36.348Z,102334.09
2023-01-28T19:20:41.445Z,102331.53
2023-01-28T19:23:50.109Z,102328.13
2023-01-28T19:26:53.612Z,102331.53
2023-01-28T19:29:56.706Z,102325.56
2023-01-28T19:33:00.968Z,102317.00
2023-01-28T19:36:06.196Z,102321.28
2023-01-28T19:39:10.492Z,102327.28
2023-01-28T19:42:13.595Z,102335.81
2023-01-28T19:45:16.918Z,102322.13
2023-01-28T19:48:20.113Z,102322.13
2023-01-28T19:51:24.813Z,102327.28
2023-01-28T19:54:28.005Z,102336.66
2023-01-28T19:57:31.301Z,102334.97
2023-01-28T20:00:34.915Z,102338.38
2023-01-28T20:03:39.468Z,102346.91
2023-01-28T20:06:43.984Z,102357.16
2023-01-28T20:09:47.230Z,102360.59
2023-01-28T20:12:50.325Z,102369.09
2023-01-28T20:15:53.360Z,102369.97
2023-01-28T20:18:59.418Z,102368.28
2023-01-28T20:22:05.771Z,102358.84
2023-01-28T20:25:10.144Z,102353.75
2023-01-28T20:28:16.676Z,102345.22
2023-01-28T20:31:21.185Z,102346.06
2023-01-28T20:34:24.302Z,102334.97
2023-01-28T20:37:29.375Z,102338.38
2023-01-28T20:40:32.445Z,102334.09
2023-01-28T20:43:36.578Z,102330.72
2023-01-28T20:46:41.278Z,102330.72
2023-01-28T20:49:44.270Z,102340.13
2023-01-28T20:52:48.762Z,102342.66
2023-01-28T20:55:57.222Z,102335.00
2023-01-28T20:59:04.992Z,102328.13
2023-01-28T21:02:09.796Z,102325.59
2023-01-28T21:05:13.506Z,102333.25
2023-01-28T21:08:20.879Z,102336.69
2023-01-28T21:11:25.614Z,102340.09
2023-01-28T21:14:28.615Z,102329.84
2023-01-28T21:17:31.920Z,102334.13
2023-01-28T21:20:35.515Z,102327.31
2023-01-28T21:23:39.949Z,102319.63
2023-01-28T21:26:43.103Z,102314.50
2023-01-28T21:29:50.244Z,102305.09
2023-01-28T21:32:56.136Z,102317.91
2023-01-28T21:35:59.094Z,102314.50
2023-01-28T21:39:05.809Z,102317.03
2023-01-28T21:42:08.921Z,102310.22
2023-01-28T21:45:14.676Z,102322.16
2023-01-28T21:48:18.056Z,102317.91
2023-01-28T21:51:36.487Z,102309.38
2023-01-28T21:54:40.872Z,102307.66
2023-01-28T21:57:44.163Z,102308.50
2023-01-28T22:00:46.169Z,102317.88
2023-01-28T22:03:49.688Z,102312.75
2023-01-28T22:06:57.167Z,102305.94
2023-01-28T22:10:01.487Z,102305.09
2023-01-28T22:13:04.541Z,102302.50
2023-01-28T22:16:08.798Z,102305.03
2023-01-28T22:19:15.168Z,102295.69
2023-01-28T22:22:18.983Z,102292.28
2023-01-28T22:25:23.497Z,102295.66
2023-01-28T22:28:30.323Z,102292.25
2023-01-28T22:31:33.488Z,102288.84
2023-01-28T22:34:36.714Z,102295.66
2023-01-28T22:37:39.970Z,102293.94
2023-01-28T22:40:44.552Z,102288.81
2023-01-28T22:43:48.275Z,102290.56
2023-01-28T22:46:51.463Z,102285.41
2023-01-28T22:49:54.553Z,102290.53
2023-01-28T22:53:00.087Z,102282.00
2023-01-28T22:56:04.894Z,102276.03
2023-01-28T22:59:08.091Z,102272.66
2023-01-28T23:02:12.575Z,102285.47
2023-01-28T23:05:15.858Z,102282.91
2023-01-28T23:08:19.562Z,102272.66
2023-01-28T23:11:27.212Z,102270.13
2023-01-28T23:14:47.887Z,102268.41
2023-01-28T23:18:08.230Z,102270.13
2023-01-28T23:21:36.455Z,102253.91
2023-01-28T23:24:39.669Z,102253.91
2023-01-28T23:27:44.271Z,102248.78
2023-01-28T23:30:47.468Z,102262.41
2023-01-28T23:33:50.536Z,102258.16
2023-01-28T23:36:55.402Z,102241.13
2023-01-28T23:40:01.376Z,102231.72
2023-01-28T23:43:06.014Z,102231.72
2023-01-28T23:46:10.383Z,102235.16
2023-01-28T23:49:13.704Z,102224.91
2023-01-28T23:52:16.694Z,102222.34
2023-01-28T23:55:19.751Z,102224.91
2023-01-28T23:58:42.304Z,102208.72
